Weather observations for the past three days for
Nashua - Boire Field Airport
Metric (Imperial)
Date Time (edt) Wind (kph) Vis. (km) Weather Sky Cond. Temperature (ºC) Relative Humidity Wind Chill (°C) Heat Index (°C) Pressure Precipitation (cm)
Air Dwpt 6 hour altimeter (cm) sea level (mb) 1 hr 3 hr 6 hr
Max. Min.
02 17:56 Calm 11.27 Light Rain SCT017 BKN047 OVC065 10 8.3 89% 75.74 1009.9 0.03
02 16:56 Calm 11.27 Light Rain SCT017 BKN038 OVC050 9.4 7.8 90% 75.77 1010.0 0.15 0.18
02 15:56 W 11 9.66 Rain Fog/Mist BKN029 OVC036 10 7.8 86% 9 75.77 1010.2 0.03
02 14:56 NW 17 16.09 Overcast BKN039 OVC048 11.1 7.2 77% 75.79 1010.3
02 13:56 S 13 G 33 16.09 Mostly Cloudy BKN027 BKN036 BKN046 13.3 5.6 15 7.2 60% 75.79 1010.4 0.08
02 12:56 SE 11 16.09 Mostly Cloudy BKN022 BKN050 11.1 7.2 77% 75.82 1011.0
02 11:56 SE 9 16.09 Mostly Cloudy BKN016 BKN048 BKN100 11.7 6.1 69% 75.87 1011.5
02 10:56 Calm 16.09 Overcast BKN012 OVC065 10 5.6 74% 75.9 1011.8 0.08
02 09:56 SE 6 16.09 Overcast BKN009 OVC065 9.4 6.7 83% 75.95 1012.5
02 08:56 Calm 16.09 Light Rain FEW019 OVC050 7.8 5.6 86% 75.92 1012.3 0.08
02 07:56 Calm 11.27 Light Rain SCT037 BKN048 OVC055 7.2 6.1 9.4 7.2 93% 75.95 1012.6 0.13 0.15
02 06:56 W 9 16.09 Light Rain FEW055 OVC075 7.8 6.1 89% 6 75.9 1011.7
02 05:56 W 7 16.09 Light Rain OVC048 8.3 4.4 77% 7 75.9 1011.8 0.03
02 04:56 Calm 16.09 Light Rain BKN050 BKN065 OVC085 8.3 4.4 77% 75.84 1011.2
02 03:56 Calm 16.09 Overcast BKN070 OVC085 8.9 2.8 66% 75.84 1011.1
02 02:56 NW 6 16.09 Overcast SCT060 OVC080 8.9 1.7 61% 75.87 1011.6
02 01:56 NW 9 16.09 Overcast BKN075 OVC100 7.8 2.8 12.2 7.2 71% 6 75.87 1011.5
02 00:56 Calm 16.09 Overcast OVC085 8.3 2.8 69% 75.87 1011.5
01 23:56 NW 6 16.09 Overcast OVC080 8.9 2.2 63% 75.87 1011.6
01 22:56 W 6 16.09 Overcast BKN085 OVC100 9.4 1.1 56% 75.87 1011.3
01 21:56 Calm 16.09 Mostly Cloudy BKN100 7.8 1.1 63% 75.87 1011.4
01 20:56 Calm 16.09 Partly Cloudy SCT085 9.4 0 52% 75.82 1010.9
01 19:56 Calm 16.09 Partly Cloudy SCT085 12.2 -0.6 16.7 12.2 42% 75.77 1010.1
01 18:56 NW 11 16.09 Partly Cloudy SCT085 16.1 -3.3 26% 75.72 1009.4
01 17:56 NW 24 G 31 16.09 Partly Cloudy SCT085 16.7 -3.9 24% 75.69 1009.0
01 16:56 W 19 G 37 16.09 Partly Cloudy SCT080 16.7 -3.3 25% 75.64 1008.6
01 15:56 W 13 G 28 16.09 Partly Cloudy SCT080 16.1 -2.8 27% 75.64 1008.5
01 14:56 NW 24 G 31 16.09 Mostly Cloudy BKN075 16.1 -2.8 27% 75.67 1009.0
01 13:56 NW 24 G 33 16.09 Mostly Cloudy BKN065 15.6 -2.2 15.6 8.3 30% 75.69 1009.2
01 12:56 W 22 G 33 16.09 Partly Cloudy SCT060 13.9 -0.6 37% 75.72 1009.4
01 11:56 W 13 16.09 Partly Cloudy SCT055 12.8 0 42% 75.74 1009.9
01 10:56 W 17 G 31 16.09 Mostly Cloudy BKN050 12.2 0 43% 75.77 1010.3
01 09:56 N 24 G 35 16.09 Overcast OVC048 11.1 -1.1 43% 75.77 1010.1
01 08:56 NW 24 16.09 A Few Clouds FEW042 10 0.6 52% 7 75.77 1010.1
01 07:56 NW 28 G 35 16.09 Fair CLR 8.3 1.7 8.9 4.4 63% 5 75.74 1010.0
01 06:56 NW 9 16.09 Fair CLR 6.1 3.9 86% 4 75.72 1009.6
01 05:56 NW 6 16.09 Fair CLR 5 2.8 86% 75.69 1009.2
01 04:56 W 6 16.09 Fair CLR 6.1 3.3 82% 75.67 1008.9
01 03:56 W 6 16.09 A Few Clouds FEW070 6.7 3.9 83% 75.64 1008.5
01 02:56 NW 9 16.09 Overcast OVC055 8.3 3.9 74% 7 75.62 1008.3
01 01:56 NW 15 16.09 Overcast SCT025 OVC050 8.9 4.4 10.6 8.9 74% 7 75.64 1008.3
01 00:56 N 17 G 31 16.09 Overcast BKN023 OVC050 9.4 5.6 77% 7 75.59 1007.8
30 23:56 NW 17 16.09 Overcast SCT032 OVC043 10.6 8.3 86% 75.54 1007.0
30 22:56 NW 15 16.09 Overcast SCT020 OVC029 10.6 9.4 92% 75.54 1007.0
30 21:56 Calm 16.09 Overcast FEW027 BKN039 OVC049 10.6 9.4 92% 75.54 1006.9
30 20:56 Calm 16.09 Overcast BKN020 OVC038 10.6 9.4 92% 75.51 1006.8
30 19:56 Calm 16.09 Overcast SCT008 BKN020 OVC033 10.6 9.4 11.1 10 92% 75.49 1006.4 0.03
30 18:56 Calm 16.09 Overcast SCT008 BKN020 OVC033 11.1 9.4 89% 75.46 1006.0
30 17:56 W 7 16.09 Overcast BKN011 OVC019 10.6 8.9 89% 75.44 1005.9
30 16:56 Calm 16.09 Overcast OVC015 11.1 8.3 83% 75.41 1005.5 0.03
30 15:56 Calm 16.09 Overcast FEW011 OVC017 11.1 8.9 86% 75.44 1005.8 0.03
30 14:56 Calm 16.09 Overcast OVC012 10.6 8.3 86% 75.46 1006.1
30 13:56 Calm 16.09 Overcast OVC009 10 8.3 10 7.8 89% 75.51 1006.6 0.2
30 12:56 Calm 16.09 Light Rain BKN009 OVC012 9.4 7.8 90% 75.54 1007.2 0.05
30 11:56 Calm 3.22 Light Rain Fog/Mist OVC007 8.9 7.8 93% 75.57 1007.3 0.05
30 10:56 SE 6 3.22 Light Rain Fog/Mist OVC007 8.9 7.8 93% 75.57 1007.5 0.1
30 09:56 E 6 3.22 Light Rain Fog/Mist OVC007 8.3 7.8 97% 75.59 1007.8 0.05
30 08:56 N 6 2.82 Rain Fog/Mist OVC007 7.8 7.2 96% 75.62 1008.2 0.05
30 07:56 NE 6 8.05 Fog/Mist BKN009 OVC045 7.8 6.7 7.8 7.2 93% 75.64 1008.3 0.1
30 06:56 N 6 8.05 Light Rain Fog/Mist BKN009 OVC045 7.2 6.7 97% 75.62 1008.1
30 05:56 NW 6 16.09 Light Rain BKN006 OVC014 7.2 6.7 97% 75.64 1008.5 0.05
30 04:56 Calm 16.09 Light Rain BKN006 BKN011 OVC026 7.2 6.7 97% 75.64 1008.5 0.05 0.05
30 03:56 Calm 9.66 Fog/Mist OVC006 7.2 6.7 97% 75.69 1009.3
30 02:56 Calm 9.66 Fog/Mist BKN007 OVC015 7.2 6.7 97% 75.77 1010.0
30 01:56 Calm 6.44 Light Rain Fog/Mist SCT005 BKN019 OVC032 7.2 6.7 8.9 7.2 97% 75.79 1010.4 0.03 0.03
30 00:56 Calm 4.02 Light Rain Fog/Mist BKN005 OVC014 7.2 6.7 97% 75.84 1011.1
29 23:56 E 6 12.87 Overcast OVC005 7.2 6.7 97% 75.87 1011.7
29 22:56 E 7 6.44 Fog/Mist OVC009 7.2 6.1 93% 6 75.92 1012.3
29 21:56 E 9 16.09 Overcast OVC009 7.8 5.6 86% 6 75.97 1013.0
29 20:56 E 15 16.09 Overcast OVC009 8.3 5.6 83% 6 76.02 1013.4
29 19:56 SE 15 16.09 Overcast OVC013 8.9 5.6 15.6 8.9 80% 7 76 1013.1
29 18:56 SE 15 16.09 Mostly Cloudy BKN018 10 6.1 77% 8 76 1013.3
Date Time (edt) Wind (kph) Vis. (km) Weather Sky Cond. Air Dwpt Max. Min. Relative Humidity Wind Chill (°C) Heat Index (°C) altimeter (cm) sea level (mb) 1 hr 3 hr 6 hr
6 hour
Temperature (ºC) Pressure Precipitation (cm)